createdAt,value
2022-08-14T00:02:16.348Z,16.30
2022-08-14T00:04:45.473Z,16.30
2022-08-14T00:07:13.929Z,16.20
2022-08-14T00:09:55.855Z,16.10
2022-08-14T00:12:33.121Z,16.00
2022-08-14T00:15:04.942Z,16.00
2022-08-14T00:17:38.044Z,16.00
2022-08-14T00:20:15.324Z,16.00
2022-08-14T00:22:56.884Z,15.90
2022-08-14T00:25:30.591Z,15.90
2022-08-14T00:28:15.034Z,15.80
2022-08-14T00:30:47.066Z,15.80
2022-08-14T00:33:16.515Z,15.80
2022-08-14T00:36:34.911Z,15.80
2022-08-14T00:38:34.954Z,15.80
2022-08-14T00:41:10.832Z,15.80
2022-08-14T00:43:43.107Z,15.70
2022-08-14T00:46:32.757Z,15.70
2022-08-14T00:48:59.202Z,15.80
2022-08-14T00:51:34.738Z,15.70
2022-08-14T00:54:16.827Z,15.70
2022-08-14T00:56:54.835Z,15.60
2022-08-14T00:59:28.370Z,15.60
2022-08-14T01:01:59.601Z,15.50
2022-08-14T01:04:51.792Z,15.50
2022-08-14T01:07:20.690Z,15.50
2022-08-14T01:09:49.868Z,15.50
2022-08-14T01:12:26.913Z,15.50
2022-08-14T01:14:58.555Z,15.40
2022-08-14T01:17:49.689Z,15.50
2022-08-14T01:20:39.232Z,15.40
2022-08-14T01:23:16.689Z,15.40
2022-08-14T01:25:51.034Z,15.40
2022-08-14T01:28:46.920Z,15.30
2022-08-14T01:31:14.394Z,15.30
2022-08-14T01:33:59.896Z,15.20
2022-08-14T01:36:39.362Z,15.20
2022-08-14T01:39:12.524Z,15.30
2022-08-14T01:41:43.374Z,15.20
2022-08-14T01:44:32.551Z,15.20
2022-08-14T01:47:16.570Z,15.20
2022-08-14T01:50:01.148Z,15.20
2022-08-14T01:52:58.699Z,15.20
2022-08-14T01:55:31.366Z,15.10
2022-08-14T01:58:02.048Z,15.00
2022-08-14T02:00:54.437Z,15.10
2022-08-14T02:03:31.247Z,15.00
2022-08-14T02:06:03.952Z,15.00
2022-08-14T02:08:53.300Z,15.00
2022-08-14T02:11:24.215Z,15.00
2022-08-14T02:13:59.674Z,15.00
2022-08-14T02:16:39.363Z,15.00
2022-08-14T02:19:10.023Z,14.90
2022-08-14T02:21:39.474Z,14.90
2022-08-14T02:24:38.955Z,14.90
2022-08-14T02:28:23.307Z,14.90
2022-08-14T02:30:00.092Z,14.90
2022-08-14T02:32:36.377Z,15.00
2022-08-14T02:35:19.301Z,14.90
2022-08-14T02:37:50.145Z,15.00
2022-08-14T02:40:19.357Z,14.90
2022-08-14T02:42:54.588Z,14.90
2022-08-14T02:45:38.576Z,14.90
2022-08-14T02:49:03.089Z,14.90
2022-08-14T02:51:05.481Z,14.90
2022-08-14T02:53:33.996Z,15.00
2022-08-14T02:56:30.912Z,14.90
2022-08-14T02:58:55.609Z,14.90
2022-08-14T03:01:31.015Z,15.00
2022-08-14T03:03:59.709Z,15.10
2022-08-14T03:06:35.090Z,15.10
2022-08-14T03:09:16.692Z,15.10
2022-08-14T03:11:45.003Z,15.20
2022-08-14T03:14:15.419Z,15.20
2022-08-14T03:16:49.203Z,15.20
2022-08-14T03:19:19.668Z,15.10
2022-08-14T03:21:53.016Z,15.10
2022-08-14T03:24:23.231Z,15.10
2022-08-14T03:26:57.612Z,15.30
2022-08-14T03:29:26.559Z,15.40
2022-08-14T03:31:54.750Z,15.40
2022-08-14T03:34:24.951Z,15.30
2022-08-14T03:37:51.281Z,15.30
2022-08-14T03:40:00.716Z,15.20
2022-08-14T03:42:31.060Z,15.30
2022-08-14T03:45:18.535Z,15.20
2022-08-14T03:47:58.439Z,15.20
2022-08-14T03:50:30.889Z,15.30
2022-08-14T03:53:03.297Z,15.20
2022-08-14T03:55:31.287Z,15.20
2022-08-14T03:58:00.507Z,15.20
2022-08-14T04:00:45.162Z,15.20
2022-08-14T04:03:23.470Z,15.20
2022-08-14T04:05:52.649Z,15.10
2022-08-14T04:08:28.931Z,15.10
2022-08-14T04:11:02.785Z,15.20
2022-08-14T04:13:37.843Z,15.20
2022-08-14T04:16:12.335Z,15.20
2022-08-14T04:18:46.705Z,15.30
2022-08-14T04:21:16.114Z,15.30
2022-08-14T04:23:45.667Z,15.40
2022-08-14T04:26:27.352Z,15.40
2022-08-14T04:29:15.383Z,15.50
2022-08-14T04:33:00.331Z,15.70
2022-08-14T04:34:33.885Z,15.80
2022-08-14T04:37:24.542Z,16.00
2022-08-14T04:40:12.914Z,16.20
2022-08-14T04:43:00.997Z,16.40
2022-08-14T04:45:40.936Z,16.80
2022-08-14T04:48:38.911Z,17.00
2022-08-14T04:51:06.108Z,17.30
2022-08-14T04:53:36.028Z,17.50
2022-08-14T04:56:30.000Z,17.70
2022-08-14T04:59:01.585Z,17.80
2022-08-14T05:01:30.127Z,17.90
2022-08-14T05:04:08.642Z,18.00
2022-08-14T05:06:41.975Z,18.10
2022-08-14T05:09:13.962Z,18.10
2022-08-14T05:11:42.569Z,18.20
2022-08-14T05:14:43.266Z,18.30
2022-08-14T05:17:01.797Z,18.40
2022-08-14T05:19:32.116Z,18.60
2022-08-14T05:22:17.373Z,18.70
2022-08-14T05:24:50.463Z,18.70
2022-08-14T05:27:23.519Z,18.80
2022-08-14T05:29:53.264Z,19.00
2022-08-14T05:32:21.623Z,19.10
2022-08-14T05:34:50.312Z,19.20
2022-08-14T05:37:17.642Z,19.10
2022-08-14T05:39:45.073Z,19.30
2022-08-14T05:42:21.950Z,19.30
2022-08-14T05:44:55.648Z,19.30
2022-08-14T05:47:24.367Z,19.40
2022-08-14T05:49:58.600Z,19.60
2022-08-14T05:52:26.333Z,19.60
2022-08-14T05:55:08.235Z,19.70
2022-08-14T05:57:46.844Z,19.80
2022-08-14T06:00:28.384Z,19.80
2022-08-14T06:03:06.753Z,20.20
2022-08-14T06:05:35.123Z,20.40
2022-08-14T06:08:36.701Z,20.50
2022-08-14T06:11:03.709Z,20.50
2022-08-14T06:13:44.607Z,20.80
2022-08-14T06:16:17.852Z,20.90
2022-08-14T06:18:51.759Z,21.00
2022-08-14T06:21:24.232Z,20.90
2022-08-14T06:23:52.207Z,20.90
2022-08-14T06:26:22.236Z,21.10
2022-08-14T06:28:52.060Z,21.20
2022-08-14T06:31:21.231Z,21.30
2022-08-14T06:35:09.383Z,21.60
2022-08-14T06:36:38.028Z,21.60
2022-08-14T06:39:10.503Z,21.70
2022-08-14T06:41:57.953Z,21.70
2022-08-14T06:44:32.482Z,21.90
2022-08-14T06:47:02.788Z,22.10
2022-08-14T06:49:45.068Z,22.60
2022-08-14T06:52:16.474Z,22.80
2022-08-14T06:54:45.048Z,23.20
2022-08-14T06:57:13.222Z,23.40
2022-08-14T06:59:42.287Z,23.80
2022-08-14T07:02:29.334Z,24.00
2022-08-14T07:05:20.896Z,24.20
2022-08-14T07:07:50.551Z,24.30
2022-08-14T07:10:18.496Z,24.50
2022-08-14T07:13:02.014Z,24.30
2022-08-14T07:15:42.160Z,24.50
2022-08-14T07:18:10.336Z,24.50
2022-08-14T07:20:39.119Z,24.90
2022-08-14T07:23:11.193Z,24.80
2022-08-14T07:25:51.650Z,24.90
2022-08-14T07:28:25.461Z,25.40
2022-08-14T07:31:05.197Z,25.50
2022-08-14T07:33:37.389Z,25.60
2022-08-14T07:36:27.359Z,25.70
2022-08-14T07:39:00.329Z,26.10
2022-08-14T07:41:33.939Z,25.80
2022-08-14T07:44:32.568Z,25.70
2022-08-14T07:46:51.264Z,25.70
2022-08-14T07:49:19.962Z,25.60
2022-08-14T07:51:49.399Z,25.70
2022-08-14T07:54:23.689Z,25.90
2022-08-14T07:57:06.419Z,26.30
2022-08-14T07:59:44.274Z,26.50
2022-08-14T08:02:18.853Z,26.40
2022-08-14T08:04:52.960Z,26.40
2022-08-14T08:07:29.582Z,26.60
2022-08-14T08:10:01.232Z,26.70
2022-08-14T08:12:32.362Z,27.00
2022-08-14T08:15:03.040Z,27.10
2022-08-14T08:17:42.485Z,27.00
2022-08-14T08:20:27.186Z,26.80
2022-08-14T08:23:00.396Z,26.90
2022-08-14T08:25:34.118Z,26.70
2022-08-14T08:28:21.967Z,27.30
2022-08-14T08:31:00.035Z,27.80
2022-08-14T08:33:36.963Z,28.40
2022-08-14T08:36:08.453Z,28.50
2022-08-14T08:39:16.918Z,28.40
2022-08-14T08:41:39.863Z,28.20
2022-08-14T08:44:17.416Z,28.30
2022-08-14T08:46:59.375Z,28.30
2022-08-14T08:49:43.091Z,28.50
2022-08-14T08:52:25.437Z,28.70
2022-08-14T08:54:56.542Z,28.60
2022-08-14T08:57:24.513Z,28.40
2022-08-14T08:59:54.811Z,28.40
2022-08-14T09:02:22.867Z,28.00
2022-08-14T09:05:02.321Z,28.10
2022-08-14T09:07:30.676Z,28.00
2022-08-14T09:10:00.567Z,27.90
2022-08-14T09:12:31.521Z,27.80
2022-08-14T09:15:02.396Z,27.90
2022-08-14T09:17:30.062Z,28.20
2022-08-14T09:19:57.778Z,28.40
2022-08-14T09:22:35.825Z,28.30
2022-08-14T09:25:07.290Z,28.20
2022-08-14T09:27:37.195Z,28.30
2022-08-14T09:30:30.724Z,28.30
2022-08-14T09:33:58.655Z,28.20
2022-08-14T09:37:01.392Z,28.30
2022-08-14T09:39:49.092Z,29.00
2022-08-14T09:42:45.237Z,29.10
2022-08-14T09:45:30.794Z,29.20
2022-08-14T09:48:16.886Z,29.50
2022-08-14T09:50:47.671Z,29.60
2022-08-14T09:54:19.095Z,29.40
2022-08-14T09:56:43.902Z,29.80
2022-08-14T09:59:16.871Z,30.10
2022-08-14T10:01:46.299Z,30.30
2022-08-14T10:04:33.909Z,30.50
2022-08-14T10:07:05.447Z,30.20
2022-08-14T10:09:34.920Z,30.60
2022-08-14T10:12:04.233Z,30.80
2022-08-14T10:14:36.107Z,31.10
2022-08-14T10:17:06.389Z,31.10
2022-08-14T10:19:36.534Z,31.00
2022-08-14T10:23:13.471Z,30.90
2022-08-14T10:24:59.711Z,30.50
2022-08-14T10:27:28.938Z,30.40
2022-08-14T10:30:00.995Z,29.80
2022-08-14T10:32:40.369Z,30.00
2022-08-14T10:35:17.300Z,30.30
2022-08-14T10:37:50.082Z,29.80
2022-08-14T10:40:37.476Z,30.50
2022-08-14T10:43:23.863Z,31.30
2022-08-14T10:45:59.640Z,31.10
2022-08-14T10:48:37.085Z,31.30
2022-08-14T10:51:08.641Z,31.10
2022-08-14T10:53:39.870Z,30.60
2022-08-14T10:56:21.789Z,30.40
2022-08-14T10:59:10.941Z,30.60
2022-08-14T11:01:41.751Z,30.80
2022-08-14T11:04:28.655Z,30.40
2022-08-14T11:06:59.420Z,30.70
2022-08-14T11:09:31.449Z,30.20
2022-08-14T11:12:34.447Z,29.90
2022-08-14T11:14:59.036Z,30.30
2022-08-14T11:17:37.242Z,30.80
2022-08-14T11:20:13.959Z,30.80
2022-08-14T11:22:56.705Z,30.50
2022-08-14T11:25:36.808Z,30.10
2022-08-14T11:28:19.161Z,30.70
2022-08-14T11:30:53.654Z,30.90
2022-08-14T11:33:24.596Z,31.80
2022-08-14T11:35:52.174Z,32.30
2022-08-14T11:38:37.997Z,32.50
2022-08-14T11:41:06.212Z,31.90
2022-08-14T11:43:58.124Z,31.40
2022-08-14T11:46:30.700Z,32.00
2022-08-14T11:49:06.538Z,31.30
2022-08-14T11:51:36.123Z,31.40
2022-08-14T11:54:19.434Z,31.10
2022-08-14T11:56:51.394Z,30.30
2022-08-14T11:59:26.250Z,29.90
2022-08-14T12:02:39.134Z,29.70
2022-08-14T12:05:16.916Z,29.60
2022-08-14T12:07:49.655Z,29.40
2022-08-14T12:10:26.130Z,29.30
2022-08-14T12:12:56.438Z,28.90
2022-08-14T12:15:36.131Z,28.40
2022-08-14T12:18:04.626Z,28.00
2022-08-14T12:20:34.311Z,27.80
2022-08-14T12:23:05.218Z,27.60
2022-08-14T12:25:34.532Z,27.50
2022-08-14T12:28:27.308Z,27.60
2022-08-14T12:30:59.707Z,27.80
2022-08-14T12:33:34.015Z,28.00
2022-08-14T12:36:09.953Z,28.10
2022-08-14T12:38:43.694Z,28.20
2022-08-14T12:41:20.657Z,28.40
2022-08-14T12:43:59.835Z,28.70
2022-08-14T12:46:33.748Z,28.90
2022-08-14T12:49:10.095Z,29.10
2022-08-14T12:51:38.319Z,29.30
2022-08-14T12:54:28.297Z,29.00
2022-08-14T12:57:19.323Z,29.20
2022-08-14T12:59:49.221Z,29.30
2022-08-14T13:02:26.256Z,29.50
2022-08-14T13:04:56.517Z,29.90
2022-08-14T13:07:32.521Z,30.10
2022-08-14T13:10:33.616Z,30.30
2022-08-14T13:13:13.049Z,29.70
2022-08-14T13:15:42.487Z,30.10
2022-08-14T13:18:14.197Z,30.30
2022-08-14T13:20:51.361Z,31.00
2022-08-14T13:23:32.092Z,30.70
2022-08-14T13:26:00.525Z,30.20
2022-08-14T13:28:32.720Z,30.50
2022-08-14T13:31:11.255Z,30.70
2022-08-14T13:33:40.779Z,30.80
2022-08-14T13:36:10.185Z,30.80
2022-08-14T13:38:53.707Z,30.50
2022-08-14T13:41:28.002Z,29.90
2022-08-14T13:44:00.573Z,29.30
2022-08-14T13:46:28.156Z,28.90
2022-08-14T13:48:59.719Z,29.20
2022-08-14T13:51:35.968Z,29.50
2022-08-14T13:54:11.580Z,30.20
2022-08-14T13:56:40.681Z,30.80
2022-08-14T13:59:08.797Z,30.80
2022-08-14T14:01:43.447Z,30.70
2022-08-14T14:04:19.126Z,31.20
2022-08-14T14:06:49.946Z,31.20
2022-08-14T14:09:25.988Z,31.00
2022-08-14T14:11:55.895Z,30.80
2022-08-14T14:14:44.441Z,31.00
2022-08-14T14:17:14.252Z,31.00
2022-08-14T14:19:46.492Z,31.30
2022-08-14T14:23:00.953Z,31.20
2022-08-14T14:25:06.415Z,31.30
2022-08-14T14:27:41.020Z,31.30
2022-08-14T14:30:46.963Z,31.60
2022-08-14T14:33:04.404Z,31.60
2022-08-14T14:35:38.317Z,32.30
2022-08-14T14:38:08.825Z,32.80
2022-08-14T14:40:53.929Z,33.20
2022-08-14T14:43:28.195Z,33.00
2022-08-14T14:45:56.300Z,33.20
2022-08-14T14:48:28.466Z,32.60
2022-08-14T14:50:59.526Z,31.30
2022-08-14T14:53:38.725Z,30.60
2022-08-14T14:56:51.156Z,30.00
2022-08-14T14:58:57.856Z,29.80
2022-08-14T15:01:26.153Z,29.60
2022-08-14T15:03:56.373Z,29.60
2022-08-14T15:06:30.365Z,29.60
2022-08-14T15:09:02.373Z,29.60
2022-08-14T15:11:32.413Z,29.80
2022-08-14T15:14:00.890Z,29.80
2022-08-14T15:16:28.964Z,29.90
2022-08-14T15:18:56.402Z,29.90
2022-08-14T15:21:25.063Z,30.00
2022-08-14T15:23:53.238Z,29.50
2022-08-14T15:26:23.684Z,28.40
2022-08-14T15:29:06.131Z,27.70
2022-08-14T15:31:36.483Z,26.80
2022-08-14T15:34:45.969Z,26.40
2022-08-14T15:36:59.242Z,26.10
2022-08-14T15:39:29.384Z,25.90
2022-08-14T15:42:00.232Z,25.70
2022-08-14T15:44:31.331Z,25.60
2022-08-14T15:47:06.921Z,25.50
2022-08-14T15:49:35.316Z,25.40
2022-08-14T15:52:05.439Z,25.30
2022-08-14T15:54:35.824Z,25.40
2022-08-14T15:57:09.076Z,25.30
2022-08-14T15:59:57.167Z,25.30
2022-08-14T16:02:28.151Z,25.20
2022-08-14T16:04:56.098Z,25.40
2022-08-14T16:07:27.359Z,25.40
2022-08-14T16:10:18.618Z,25.60
2022-08-14T16:12:54.626Z,25.60
2022-08-14T16:15:22.541Z,25.80
2022-08-14T16:17:52.890Z,25.90
2022-08-14T16:23:12.213Z,25.90
2022-08-14T16:25:43.807Z,25.90
2022-08-14T16:28:27.012Z,25.90
2022-08-14T16:30:55.119Z,25.90
2022-08-14T16:36:30.477Z,25.80
2022-08-14T16:39:02.122Z,25.80
2022-08-14T16:40:23.868Z,25.90
2022-08-14T16:41:30.492Z,25.80
2022-08-14T16:44:13.687Z,25.70
2022-08-14T16:46:55.249Z,25.70
2022-08-14T16:49:26.197Z,25.70
2022-08-14T16:52:26.296Z,25.70
2022-08-14T16:55:06.792Z,25.70
2022-08-14T16:57:34.533Z,25.70
2022-08-14T17:00:07.442Z,25.60
2022-08-14T17:03:11.445Z,25.60
2022-08-14T17:05:47.024Z,25.40
2022-08-14T17:08:31.849Z,25.30
2022-08-14T17:11:10.718Z,25.20
2022-08-14T17:13:59.215Z,25.10
2022-08-14T17:16:38.640Z,25.10
2022-08-14T17:19:11.586Z,25.00
2022-08-14T17:21:42.652Z,25.10
2022-08-14T17:24:56.042Z,25.10
2022-08-14T17:27:07.863Z,25.10
2022-08-14T17:29:54.359Z,24.90
2022-08-14T17:32:56.655Z,24.90
2022-08-14T17:35:57.439Z,24.80
2022-08-14T17:38:38.620Z,24.80
2022-08-14T17:41:24.023Z,24.70
2022-08-14T17:44:21.639Z,24.70
2022-08-14T17:46:55.407Z,24.60
2022-08-14T17:49:32.138Z,24.60
2022-08-14T17:52:17.673Z,24.50
2022-08-14T17:54:52.906Z,24.40
2022-08-14T17:57:28.373Z,24.20
2022-08-14T17:59:57.093Z,24.20
2022-08-14T18:02:31.457Z,24.20
2022-08-14T18:05:03.154Z,24.30
2022-08-14T18:07:50.350Z,24.30
2022-08-14T18:10:51.792Z,24.40
2022-08-14T18:13:10.833Z,24.50
2022-08-14T18:15:41.359Z,24.60
2022-08-14T18:18:11.151Z,24.50
2022-08-14T18:21:39.577Z,24.40
2022-08-14T18:23:28.356Z,24.20
2022-08-14T18:25:58.698Z,24.10
2022-08-14T18:28:48.309Z,24.20
2022-08-14T18:31:43.329Z,24.00
2022-08-14T18:34:30.627Z,24.00
2022-08-14T18:37:16.742Z,23.90
2022-08-14T18:40:03.645Z,23.70
2022-08-14T18:42:58.167Z,23.70
2022-08-14T18:45:41.557Z,23.50
2022-08-14T18:48:51.529Z,23.40
2022-08-14T18:51:46.008Z,23.20
2022-08-14T18:54:33.013Z,23.10
2022-08-14T18:57:03.905Z,23.10
2022-08-14T18:59:43.133Z,23.00
2022-08-14T19:02:49.827Z,22.90
2022-08-14T19:05:58.852Z,22.60
2022-08-14T19:08:27.078Z,22.50
2022-08-14T19:10:57.403Z,22.40
2022-08-14T19:13:51.544Z,22.20
2022-08-14T19:16:22.921Z,22.20
2022-08-14T19:19:00.581Z,22.10
2022-08-14T19:21:50.514Z,22.00
2022-08-14T19:24:44.253Z,21.90
2022-08-14T19:27:24.242Z,21.70
2022-08-14T19:30:23.314Z,21.60
2022-08-14T19:32:57.131Z,21.50
2022-08-14T19:35:55.647Z,21.50
2022-08-14T19:38:57.339Z,21.40
2022-08-14T19:41:34.406Z,21.40
2022-08-14T19:44:19.590Z,21.30
2022-08-14T19:47:02.513Z,21.30
2022-08-14T19:50:07.459Z,21.20
2022-08-14T19:52:24.372Z,21.10
2022-08-14T19:54:52.831Z,21.00
2022-08-14T19:57:26.184Z,21.00
2022-08-14T20:00:28.013Z,21.00
2022-08-14T20:03:12.011Z,21.10
2022-08-14T20:05:46.473Z,21.10
2022-08-14T20:09:05.636Z,21.10
2022-08-14T20:11:20.944Z,21.10
2022-08-14T20:14:10.385Z,21.10
2022-08-14T20:16:41.008Z,21.00
2022-08-14T20:19:20.028Z,21.00
2022-08-14T20:22:35.859Z,20.90
2022-08-14T20:24:47.224Z,20.80
2022-08-14T20:27:40.916Z,20.80
2022-08-14T20:30:35.189Z,20.70
2022-08-14T20:33:10.533Z,20.70
2022-08-14T20:35:49.375Z,20.70
2022-08-14T20:38:31.929Z,20.60
2022-08-14T20:41:10.842Z,20.50
2022-08-14T20:44:00.824Z,20.30
2022-08-14T20:46:38.819Z,20.20
2022-08-14T20:49:09.634Z,20.10
2022-08-14T20:51:58.978Z,20.00
2022-08-14T20:54:34.605Z,20.00
2022-08-14T20:57:08.998Z,19.90
2022-08-14T20:59:45.347Z,19.90
2022-08-14T21:02:49.905Z,19.80
2022-08-14T21:05:33.347Z,19.70
2022-08-14T21:08:09.757Z,19.70
2022-08-14T21:10:53.143Z,19.70
2022-08-14T21:14:09.052Z,19.70
2022-08-14T21:16:33.551Z,19.60
2022-08-14T21:19:02.298Z,19.50
2022-08-14T21:21:40.918Z,19.40
2022-08-14T21:24:39.009Z,19.30
2022-08-14T21:27:12.187Z,19.20
2022-08-14T21:29:55.043Z,19.20
2022-08-14T21:32:36.624Z,19.10
2022-08-14T21:35:20.176Z,19.10
2022-08-14T21:37:52.462Z,19.00
2022-08-14T21:40:40.504Z,19.00
2022-08-14T21:43:17.198Z,19.00
2022-08-14T21:45:53.936Z,18.80
2022-08-14T21:48:25.238Z,18.80
2022-08-14T21:51:01.827Z,18.70
2022-08-14T21:53:58.141Z,18.60
2022-08-14T21:56:38.600Z,18.60
2022-08-14T21:59:17.986Z,18.60
2022-08-14T22:02:01.893Z,18.60
2022-08-14T22:04:40.439Z,18.60
2022-08-14T22:07:18.218Z,18.40
2022-08-14T22:09:54.665Z,18.50
2022-08-14T22:12:57.893Z,18.40
2022-08-14T22:15:14.706Z,18.50
2022-08-14T22:17:44.360Z,18.50
2022-08-14T22:20:16.468Z,18.50
2022-08-14T22:22:44.585Z,18.30
2022-08-14T22:25:17.244Z,18.40
2022-08-14T22:27:55.741Z,18.30
2022-08-14T22:30:25.258Z,18.20
2022-08-14T22:32:57.849Z,18.30
2022-08-14T22:35:26.546Z,18.30
2022-08-14T22:38:34.610Z,18.20
2022-08-14T22:40:58.061Z,18.20
2022-08-14T22:43:33.628Z,18.10
2022-08-14T22:46:14.501Z,18.10
2022-08-14T22:48:49.402Z,18.00
2022-08-14T22:51:20.268Z,18.00
2022-08-14T22:53:52.367Z,18.10
2022-08-14T22:56:29.081Z,18.00
2022-08-14T22:59:03.406Z,18.00
2022-08-14T23:01:55.668Z,17.90
2022-08-14T23:04:35.728Z,17.80
2022-08-14T23:07:22.696Z,17.80
2022-08-14T23:10:31.175Z,17.90
2022-08-14T23:12:54.611Z,17.80
2022-08-14T23:15:29.947Z,17.70
2022-08-14T23:17:58.142Z,17.70
2022-08-14T23:20:29.379Z,17.70
2022-08-14T23:22:57.958Z,17.70
2022-08-14T23:25:56.666Z,17.80
2022-08-14T23:28:33.836Z,17.70
2022-08-14T23:31:14.052Z,17.70
2022-08-14T23:33:51.903Z,17.70
2022-08-14T23:36:28.209Z,17.80
2022-08-14T23:39:00.445Z,17.80
2022-08-14T23:41:46.408Z,17.80
2022-08-14T23:44:15.391Z,17.90
2022-08-14T23:46:44.215Z,17.90
2022-08-14T23:49:12.548Z,17.90
2022-08-14T23:51:40.051Z,17.90
2022-08-14T23:54:48.006Z,18.00
2022-08-14T23:56:59.925Z,17.90
2022-08-14T23:59:31.583Z,17.80
